createdAt,value
2022-09-22T00:02:20.722Z,101315.97
2022-09-22T00:04:48.461Z,101317.84
2022-09-22T00:07:16.244Z,101316.13
2022-09-22T00:09:43.988Z,101322.47
2022-09-22T00:12:11.779Z,101319.88
2022-09-22T00:14:39.468Z,101321.75
2022-09-22T00:17:07.165Z,101324.50
2022-09-22T00:19:34.834Z,101336.38
2022-09-22T00:22:02.582Z,101320.91
2022-09-22T00:24:31.196Z,101321.91
2022-09-22T00:26:59.148Z,101319.38
2022-09-22T00:29:26.834Z,101314.75
2022-09-22T00:31:54.602Z,101324.81
2022-09-22T00:34:22.424Z,101323.09
2022-09-22T00:36:50.117Z,101315.09
2022-09-22T00:39:17.824Z,101315.94
2022-09-22T00:41:45.657Z,101314.22
2022-09-22T00:44:13.454Z,101308.78
2022-09-22T00:46:42.367Z,101306.03
2022-09-22T00:49:10.094Z,101308.78
2022-09-22T00:51:37.800Z,101307.06
2022-09-22T00:54:05.670Z,101309.78
2022-09-22T00:56:39.184Z,101309.78
2022-09-22T00:59:07.105Z,101320.00
2022-09-22T01:01:36.957Z,101299.22
2022-09-22T01:04:04.930Z,101306.56
2022-09-22T01:06:32.648Z,101297.53
2022-09-22T01:09:00.591Z,101296.50
2022-09-22T01:11:29.751Z,101294.81
2022-09-22T01:13:57.463Z,101301.25
2022-09-22T01:16:25.236Z,101296.66
2022-09-22T01:18:53.515Z,101302.28
2022-09-22T01:21:21.248Z,101296.00
2022-09-22T01:23:48.915Z,101294.97
2022-09-22T01:26:16.712Z,101287.81
2022-09-22T01:28:44.380Z,101285.94
2022-09-22T01:31:12.120Z,101286.94
2022-09-22T01:33:40.115Z,101285.25
2022-09-22T01:36:07.843Z,101281.66
2022-09-22T01:38:35.696Z,101282.50
2022-09-22T01:41:03.451Z,101290.84
2022-09-22T01:43:31.127Z,101281.81
2022-09-22T01:45:58.906Z,101290.00
2022-09-22T01:48:26.642Z,101282.66
2022-09-22T01:50:54.339Z,101277.22
2022-09-22T01:53:22.127Z,101273.66
2022-09-22T01:55:49.812Z,101282.00
2022-09-22T01:58:18.006Z,101269.22
2022-09-22T02:00:45.824Z,101277.41
2022-09-22T02:03:13.838Z,101272.78
2022-09-22T02:05:41.749Z,101275.66
2022-09-22T02:08:10.043Z,101269.38
2022-09-22T02:10:37.927Z,101280.28
2022-09-22T02:13:05.663Z,101271.25
2022-09-22T02:15:53.534Z,101279.44
2022-09-22T02:18:21.312Z,101283.19
2022-09-22T02:20:49.079Z,101275.16
2022-09-22T02:23:16.794Z,101275.16
2022-09-22T02:25:44.707Z,101276.84
2022-09-22T02:28:12.420Z,101276.00
2022-09-22T02:30:40.318Z,101281.63
2022-09-22T02:33:08.107Z,101271.59
2022-09-22T02:35:36.072Z,101281.47
2022-09-22T02:38:03.801Z,101275.16
2022-09-22T02:40:31.669Z,101274.31
2022-09-22T02:42:59.578Z,101273.47
2022-09-22T02:45:27.271Z,101265.41
2022-09-22T02:47:57.166Z,101268.13
2022-09-22T02:50:24.982Z,101265.56
2022-09-22T02:52:52.897Z,101269.16
2022-09-22T02:55:20.651Z,101264.56
2022-09-22T02:57:48.726Z,101262.00
2022-09-22T03:00:16.962Z,101268.28
2022-09-22T03:02:44.684Z,101256.53
2022-09-22T03:05:12.446Z,101264.72
2022-09-22T03:07:40.218Z,101262.31
2022-09-22T03:10:08.059Z,101265.91
2022-09-22T03:12:35.790Z,101252.44
2022-09-22T03:15:03.493Z,101259.59
2022-09-22T03:17:32.961Z,101254.28
2022-09-22T03:20:00.749Z,101255.19
2022-09-22T03:22:28.479Z,101250.72
2022-09-22T03:24:56.165Z,101255.31
2022-09-22T03:27:24.068Z,101248.84
2022-09-22T03:29:51.805Z,101256.19
2022-09-22T03:32:19.537Z,101251.56
2022-09-22T03:34:47.411Z,101258.06
2022-09-22T03:37:15.216Z,101257.22
2022-09-22T03:39:42.921Z,101262.66
2022-09-22T03:42:10.641Z,101257.22
2022-09-22T03:44:38.307Z,101266.22
2022-09-22T03:47:06.038Z,101259.09
2022-09-22T03:49:33.790Z,101257.22
2022-09-22T03:52:01.508Z,101254.63
2022-09-22T03:54:29.175Z,101250.91
2022-09-22T03:56:56.900Z,101260.09
2022-09-22T03:59:24.575Z,101254.63
2022-09-22T04:01:59.689Z,101255.66
2022-09-22T04:04:27.417Z,101253.78
2022-09-22T04:06:55.098Z,101245.75
2022-09-22T04:09:22.908Z,101248.50
2022-09-22T04:11:50.692Z,101245.09
2022-09-22T04:14:18.386Z,101244.25
2022-09-22T04:16:46.287Z,101245.25
2022-09-22T04:19:14.040Z,101245.25
2022-09-22T04:21:42.099Z,101243.56
2022-09-22T04:24:11.639Z,101247.97
2022-09-22T04:26:47.776Z,101247.81
2022-09-22T04:29:27.083Z,101246.09
2022-09-22T04:31:54.780Z,101239.81
2022-09-22T04:34:22.608Z,101236.06
2022-09-22T04:36:50.350Z,101238.81
2022-09-22T04:39:22.971Z,101244.25
2022-09-22T04:41:51.469Z,101239.97
2022-09-22T04:44:19.168Z,101240.13
2022-09-22T04:46:47.169Z,101242.16
2022-09-22T04:49:14.849Z,101240.28
2022-09-22T04:51:42.629Z,101238.44
2022-09-22T04:54:10.441Z,101247.59
2022-09-22T04:56:38.127Z,101255.78
2022-09-22T04:59:05.864Z,101244.19
2022-09-22T05:01:33.659Z,101247.09
2022-09-22T05:04:01.425Z,101247.09
2022-09-22T05:06:29.153Z,101247.09
2022-09-22T05:08:56.901Z,101255.97
2022-09-22T05:11:24.696Z,101247.94
2022-09-22T05:13:52.437Z,101255.41
2022-09-22T05:16:20.167Z,101255.41
2022-09-22T05:18:50.290Z,101252.00
2022-09-22T05:21:18.816Z,101257.44
2022-09-22T05:23:46.596Z,101259.16
2022-09-22T05:26:14.277Z,101269.22
2022-09-22T05:28:41.994Z,101261.19
2022-09-22T05:31:09.815Z,101266.97
2022-09-22T05:34:04.641Z,101269.50
2022-09-22T05:36:32.475Z,101266.97
2022-09-22T05:39:00.363Z,101264.94
2022-09-22T05:41:28.163Z,101268.66
2022-09-22T05:43:55.927Z,101266.97
2022-09-22T05:46:23.588Z,101279.56
2022-09-22T05:48:51.301Z,101271.38
2022-09-22T05:51:19.102Z,101278.56
2022-09-22T05:53:46.903Z,101281.28
2022-09-22T05:56:16.674Z,101282.97
2022-09-22T05:58:44.529Z,101282.97
2022-09-22T06:01:12.697Z,101285.69
2022-09-22T06:03:40.880Z,101282.97
2022-09-22T06:06:08.736Z,101284.69
2022-09-22T06:08:36.574Z,101283.69
2022-09-22T06:11:04.381Z,101284.84
2022-09-22T06:13:32.208Z,101284.84
2022-09-22T06:16:00.114Z,101287.59
2022-09-22T06:18:28.002Z,101278.56
2022-09-22T06:20:56.204Z,101286.56
2022-09-22T06:23:24.223Z,101287.41
2022-09-22T06:25:52.043Z,101286.72
2022-09-22T06:28:19.870Z,101281.28
2022-09-22T06:30:52.061Z,101287.59
2022-09-22T06:33:19.935Z,101284.00
2022-09-22T06:35:47.757Z,101289.47
2022-09-22T06:38:15.968Z,101281.44
2022-09-22T06:40:43.934Z,101282.47
2022-09-22T06:43:12.944Z,101286.03
2022-09-22T06:45:41.553Z,101285.00
2022-09-22T06:48:10.529Z,101285.00
2022-09-22T06:50:38.885Z,101285.00
2022-09-22T06:53:07.304Z,101285.00
2022-09-22T06:55:35.216Z,101289.47
2022-09-22T06:58:03.232Z,101285.00
2022-09-22T07:00:32.913Z,101289.59
2022-09-22T07:03:01.053Z,101289.47
2022-09-22T07:05:29.138Z,101290.44
2022-09-22T07:07:56.969Z,101293.19
2022-09-22T07:10:24.845Z,101287.03
2022-09-22T07:12:52.670Z,101296.75
2022-09-22T07:15:20.590Z,101290.44
2022-09-22T07:17:48.803Z,101294.22
2022-09-22T07:20:17.950Z,101297.63
2022-09-22T07:22:45.945Z,101291.47
2022-09-22T07:25:13.762Z,101288.56
2022-09-22T07:27:41.617Z,101295.91
2022-09-22T07:30:10.326Z,101288.44
2022-09-22T07:32:38.180Z,101282.97
2022-09-22T07:35:06.021Z,101286.56
2022-09-22T07:40:28.402Z,101285.84
2022-09-22T07:42:56.285Z,101288.44
2022-09-22T07:45:24.067Z,101289.28
2022-09-22T07:48:09.301Z,101285.56
2022-09-22T07:50:37.147Z,101290.13
2022-09-22T07:53:05.361Z,101283.69
2022-09-22T07:55:33.386Z,101290.13
2022-09-22T07:58:01.177Z,101286.41
2022-09-22T08:00:29.400Z,101292.69
2022-09-22T08:02:57.966Z,101287.25
2022-09-22T08:05:25.785Z,101292.69
2022-09-22T08:07:57.276Z,101293.53
2022-09-22T08:10:25.035Z,101294.56
2022-09-22T08:12:52.982Z,101299.00
2022-09-22T08:15:26.901Z,101290.81
2022-09-22T08:17:55.534Z,101291.84
2022-09-22T08:20:23.378Z,101288.09
2022-09-22T08:22:51.251Z,101288.94
2022-09-22T08:25:19.026Z,101293.53
2022-09-22T08:27:46.794Z,101290.13
2022-09-22T08:30:14.563Z,101288.28
2022-09-22T08:32:42.424Z,101290.81
2022-09-22T08:35:10.244Z,101286.41
2022-09-22T08:37:38.252Z,101285.56
2022-09-22T08:40:06.213Z,101285.69
2022-09-22T08:42:34.251Z,101286.56
2022-09-22T08:45:02.094Z,101284.00
2022-09-22T08:47:43.706Z,101279.41
2022-09-22T08:50:28.942Z,101283.31
2022-09-22T08:52:56.902Z,101287.03
2022-09-22T08:55:24.620Z,101283.31
2022-09-22T08:57:57.072Z,101286.19
2022-09-22T09:00:24.886Z,101279.75
2022-09-22T09:02:53.083Z,101289.59
2022-09-22T09:05:20.912Z,101275.84
2022-09-22T09:07:48.711Z,101290.44
2022-09-22T09:10:16.534Z,101283.84
2022-09-22T09:12:44.353Z,101283.13
2022-09-22T09:15:12.208Z,101287.72
2022-09-22T09:17:40.076Z,101281.28
2022-09-22T09:20:07.961Z,101285.19
2022-09-22T09:22:36.197Z,101282.63
2022-09-22T09:27:52.129Z,101282.63
2022-09-22T09:30:19.921Z,101282.28
2022-09-22T09:32:48.376Z,101282.97
2022-09-22T09:35:16.172Z,101284.69
2022-09-22T09:37:44.174Z,101277.53
2022-09-22T09:40:13.192Z,101279.56
2022-09-22T09:42:41.006Z,101277.53
2022-09-22T09:45:08.800Z,101275.84
2022-09-22T09:47:37.039Z,101271.25
2022-09-22T09:50:04.828Z,101264.94
2022-09-22T09:52:32.810Z,101274.09
2022-09-22T09:55:00.630Z,101264.06
2022-09-22T09:57:29.755Z,101269.22
2022-09-22T10:00:14.962Z,101269.38
2022-09-22T10:02:42.906Z,101272.78
2022-09-22T10:05:12.203Z,101269.22
2022-09-22T10:07:40.197Z,101261.19
2022-09-22T10:10:08.074Z,101270.06
2022-09-22T10:12:36.000Z,101264.63
2022-09-22T10:15:03.862Z,101261.88
2022-09-22T10:17:35.167Z,101259.16
2022-09-22T10:20:03.058Z,101252.88
2022-09-22T10:22:31.131Z,101260.16
2022-09-22T10:24:59.062Z,101262.03
2022-09-22T10:27:26.965Z,101260.00
2022-09-22T10:29:57.314Z,101257.28
2022-09-22T10:32:25.067Z,101252.00
2022-09-22T10:34:57.167Z,101251.16
2022-09-22T10:37:26.251Z,101253.88
2022-09-22T10:39:54.148Z,101251.16
2022-09-22T10:42:22.808Z,101249.28
2022-09-22T10:44:50.629Z,101247.41
2022-09-22T10:47:20.703Z,101242.81
2022-09-22T10:49:51.208Z,101239.75
2022-09-22T10:52:19.478Z,101242.50
2022-09-22T10:54:47.326Z,101240.81
2022-09-22T10:57:15.096Z,101241.47
2022-09-22T10:59:43.064Z,101244.19
2022-09-22T11:02:11.330Z,101250.66
2022-09-22T11:04:39.373Z,101245.38
2022-09-22T11:07:24.771Z,101247.94
2022-09-22T11:10:10.274Z,101241.66
2022-09-22T11:12:38.129Z,101247.09
2022-09-22T11:15:05.994Z,101250.66
2022-09-22T11:17:33.848Z,101241.66
2022-09-22T11:20:01.625Z,101246.25
2022-09-22T11:22:29.398Z,101238.22
2022-09-22T11:24:57.255Z,101239.75
2022-09-22T11:27:25.091Z,101239.91
2022-09-22T11:29:52.866Z,101238.06
2022-09-22T11:32:20.661Z,101236.00
2022-09-22T11:34:48.282Z,101223.28
2022-09-22T11:37:26.638Z,101225.31
2022-09-22T11:39:54.351Z,101229.91
2022-09-22T11:42:22.137Z,101229.72
2022-09-22T11:44:49.822Z,101236.19
2022-09-22T11:47:17.505Z,101224.47
2022-09-22T11:49:45.265Z,101232.63
2022-09-22T11:52:17.286Z,101228.88
2022-09-22T11:54:46.110Z,101219.00
2022-09-22T11:57:13.751Z,101211.00
2022-09-22T11:59:41.514Z,101211.84
2022-09-22T12:05:30.178Z,101208.75
2022-09-22T12:07:59.253Z,101202.13
2022-09-22T12:10:27.031Z,101204.00
2022-09-22T12:12:56.831Z,101206.38
2022-09-22T12:15:24.576Z,101199.25
2022-09-22T12:17:56.410Z,101212.69
2022-09-22T12:20:25.501Z,101193.78
2022-09-22T12:22:53.201Z,101197.22
2022-09-22T12:25:37.606Z,101198.91
2022-09-22T12:28:08.873Z,101187.31
2022-09-22T12:30:46.050Z,101190.88
2022-09-22T12:33:13.886Z,101184.59
2022-09-22T12:35:43.616Z,101174.72
2022-09-22T12:38:13.511Z,101175.72
2022-09-22T12:40:42.362Z,101169.28
2022-09-22T12:43:10.089Z,101172.69
2022-09-22T12:45:37.873Z,101167.41
2022-09-22T12:48:07.159Z,101162.66
2022-09-22T12:50:37.576Z,101166.22
2022-09-22T12:53:05.244Z,101163.66
2022-09-22T12:55:38.571Z,101162.81
2022-09-22T12:58:06.355Z,101164.69
2022-09-22T13:00:34.073Z,101169.09
2022-09-22T13:03:01.777Z,101159.94
2022-09-22T13:05:29.511Z,101174.41
2022-09-22T13:07:57.197Z,101174.53
2022-09-22T13:10:25.011Z,101158.38
2022-09-22T13:12:52.846Z,101157.34
2022-09-22T13:15:20.898Z,101158.19
2022-09-22T13:17:49.502Z,101158.19
2022-09-22T13:20:17.257Z,101157.53
2022-09-22T13:22:45.065Z,101153.94
2022-09-22T13:25:12.944Z,101151.22
2022-09-22T13:27:40.857Z,101152.94
2022-09-22T13:30:08.712Z,101151.91
2022-09-22T13:32:36.903Z,101149.19
2022-09-22T13:35:04.791Z,101150.22
2022-09-22T13:37:32.624Z,101144.75
2022-09-22T13:40:00.415Z,101148.50
2022-09-22T13:42:32.709Z,101145.75
2022-09-22T13:45:00.614Z,101149.38
2022-09-22T13:47:28.396Z,101147.63
2022-09-22T13:49:56.269Z,101133.81
2022-09-22T13:52:24.786Z,101141.16
2022-09-22T13:54:52.617Z,101133.88
2022-09-22T13:57:20.439Z,101135.41
2022-09-22T13:59:48.424Z,101128.66
2022-09-22T14:02:16.379Z,101125.09
2022-09-22T14:04:44.251Z,101127.19
2022-09-22T14:07:12.037Z,101117.97
2022-09-22T14:09:40.017Z,101125.78
2022-09-22T14:12:07.769Z,101111.41
2022-09-22T14:14:35.890Z,101111.88
2022-09-22T14:17:03.918Z,101112.91
2022-09-22T14:19:34.442Z,101108.81
2022-09-22T14:22:02.904Z,101106.19
2022-09-22T14:24:30.689Z,101109.78
2022-09-22T14:27:03.518Z,101101.69
2022-09-22T14:29:32.191Z,101102.44
2022-09-22T14:32:00.502Z,101102.88
2022-09-22T14:34:29.846Z,101105.94
2022-09-22T14:36:57.896Z,101104.13
2022-09-22T14:39:31.249Z,101108.06
2022-09-22T14:41:59.725Z,101111.44
2022-09-22T14:44:28.251Z,101105.84
2022-09-22T14:46:56.120Z,101106.22
2022-09-22T14:49:24.261Z,101097.81
2022-09-22T14:51:52.118Z,101096.59
2022-09-22T14:54:23.260Z,101090.31
2022-09-22T14:56:51.730Z,101095.28
2022-09-22T14:59:37.105Z,101089.53
2022-09-22T15:02:22.566Z,101092.94
2022-09-22T15:04:50.374Z,101087.38
2022-09-22T15:07:20.455Z,101086.84
2022-09-22T15:09:48.425Z,101089.84
2022-09-22T15:12:16.219Z,101090.88
2022-09-22T15:14:44.283Z,101085.09
2022-09-22T15:17:25.884Z,101082.88
2022-09-22T15:19:57.208Z,101077.88
2022-09-22T15:22:27.152Z,101079.22
2022-09-22T15:24:54.969Z,101081.81
2022-09-22T15:27:22.980Z,101082.03
2022-09-22T15:29:52.096Z,101088.03
2022-09-22T15:32:20.016Z,101094.19
2022-09-22T15:34:47.975Z,101081.78
2022-09-22T15:37:15.945Z,101081.59
2022-09-22T15:39:43.692Z,101082.31
2022-09-22T15:42:12.402Z,101076.91
2022-09-22T15:44:40.830Z,101080.38
2022-09-22T15:47:08.850Z,101077.75
2022-09-22T15:49:36.713Z,101075.13
2022-09-22T15:52:04.959Z,101074.28
2022-09-22T15:54:44.130Z,101062.84
2022-09-22T15:57:15.008Z,101072.91
2022-09-22T15:59:44.048Z,101066.19
2022-09-22T16:02:11.974Z,101071.44
2022-09-22T16:04:39.949Z,101067.66
2022-09-22T16:07:08.522Z,101069.28
2022-09-22T16:09:36.430Z,101070.44
2022-09-22T16:12:07.826Z,101069.56
2022-09-22T16:14:36.860Z,101066.81
2022-09-22T16:17:05.586Z,101059.19
2022-09-22T16:19:33.537Z,101054.00
2022-09-22T16:22:01.382Z,101059.38
2022-09-22T16:24:29.232Z,101052.09
2022-09-22T16:26:57.226Z,101044.16
2022-09-22T16:29:27.147Z,101050.75
2022-09-22T16:31:55.112Z,101048.97
2022-09-22T16:34:23.969Z,101050.88
2022-09-22T16:36:52.446Z,101048.88
2022-09-22T16:39:20.398Z,101049.13
2022-09-22T16:41:49.047Z,101045.63
2022-09-22T16:44:17.052Z,101052.03
2022-09-22T16:46:45.157Z,101055.66
2022-09-22T16:49:13.904Z,101049.22
2022-09-22T16:52:01.671Z,101050.13
2022-09-22T16:54:32.373Z,101047.47
2022-09-22T16:57:00.430Z,101045.28
2022-09-22T16:59:28.855Z,101049.41
2022-09-22T17:01:59.895Z,101051.78
2022-09-22T17:04:27.721Z,101052.31
2022-09-22T17:06:56.176Z,101051.84
2022-09-22T17:09:24.141Z,101053.22
2022-09-22T17:11:53.784Z,101054.78
2022-09-22T17:14:22.367Z,101063.34
2022-09-22T17:16:52.236Z,101061.16
2022-09-22T17:19:20.456Z,101052.47
2022-09-22T17:21:48.617Z,101052.84
2022-09-22T17:24:16.925Z,101052.31
2022-09-22T17:26:47.144Z,101058.34
2022-09-22T17:29:16.048Z,101051.53
2022-09-22T17:31:44.228Z,101056.50
2022-09-22T17:34:13.333Z,101049.50
2022-09-22T17:39:15.012Z,101049.84
2022-09-22T17:41:47.086Z,101052.09
2022-09-22T17:44:18.944Z,101054.84
2022-09-22T17:47:00.522Z,101053.47
2022-09-22T17:49:45.979Z,101053.09
2022-09-22T17:52:31.368Z,101046.75
2022-09-22T17:55:08.413Z,101054.06
2022-09-22T17:57:36.120Z,101054.50
2022-09-22T18:00:04.033Z,101051.50
2022-09-22T18:02:32.327Z,101053.78
2022-09-22T18:05:00.137Z,101048.38
2022-09-22T18:07:27.988Z,101051.72
2022-09-22T18:09:56.167Z,101050.03
2022-09-22T18:12:24.741Z,101049.28
2022-09-22T18:14:52.511Z,101055.00
2022-09-22T18:17:20.492Z,101065.25
2022-09-22T18:19:48.443Z,101061.03
2022-09-22T18:22:17.153Z,101064.03
2022-09-22T18:24:45.274Z,101054.47
2022-09-22T18:27:13.449Z,101052.91
2022-09-22T18:29:41.313Z,101055.75
2022-09-22T18:32:09.077Z,101054.56
2022-09-22T18:34:38.815Z,101065.59
2022-09-22T18:37:06.677Z,101066.66
2022-09-22T18:39:35.286Z,101063.94
2022-09-22T18:42:03.096Z,101058.81
2022-09-22T18:44:30.804Z,101054.94
2022-09-22T18:47:01.245Z,101065.66
2022-09-22T18:49:32.044Z,101060.81
2022-09-22T18:52:00.371Z,101064.88
2022-09-22T18:54:30.122Z,101058.47
2022-09-22T18:56:57.796Z,101068.13
2022-09-22T18:59:25.466Z,101061.69
2022-09-22T19:01:53.387Z,101063.41
2022-09-22T19:04:21.291Z,101060.69
2022-09-22T19:07:06.502Z,101067.88
2022-09-22T19:09:34.469Z,101070.59
2022-09-22T19:12:02.597Z,101065.81
2022-09-22T19:14:36.447Z,101067.91
2022-09-22T19:17:04.404Z,101070.50
2022-09-22T19:19:32.164Z,101068.69
2022-09-22T19:22:00.109Z,101066.13
2022-09-22T19:24:27.840Z,101064.47
2022-09-22T19:26:56.347Z,101058.44
2022-09-22T19:29:24.134Z,101065.03
2022-09-22T19:31:55.710Z,101059.44
2022-09-22T19:34:23.703Z,101065.13
2022-09-22T19:36:51.493Z,101061.53
2022-09-22T19:39:19.338Z,101065.88
2022-09-22T19:41:48.447Z,101063.50
2022-09-22T19:44:17.164Z,101060.22
2022-09-22T19:46:45.502Z,101061.53
2022-09-22T19:49:13.320Z,101060.78
2022-09-22T19:51:42.476Z,101055.59
2022-09-22T19:54:10.220Z,101057.97
2022-09-22T19:56:37.937Z,101059.09
2022-09-22T19:59:07.250Z,101060.19
2022-09-22T20:01:35.506Z,101058.78
2022-09-22T20:04:03.315Z,101050.66
2022-09-22T20:06:31.090Z,101045.41
2022-09-22T20:09:02.850Z,101055.41
2022-09-22T20:11:30.749Z,101051.03
2022-09-22T20:14:15.913Z,101049.41
2022-09-22T20:16:46.021Z,101049.66
2022-09-22T20:19:14.419Z,101050.56
2022-09-22T20:21:42.158Z,101049.22
2022-09-22T20:24:10.025Z,101053.75
2022-09-22T20:26:37.763Z,101047.28
2022-09-22T20:29:05.526Z,101045.09
2022-09-22T20:31:33.329Z,101039.53
2022-09-22T20:34:01.141Z,101043.59
2022-09-22T20:36:29.021Z,101035.47
2022-09-22T20:38:56.777Z,101037.72
2022-09-22T20:41:24.531Z,101036.53
2022-09-22T20:43:52.269Z,101036.22
2022-09-22T20:46:20.129Z,101033.84
2022-09-22T20:48:48.169Z,101033.38
2022-09-22T20:51:15.935Z,101034.72
2022-09-22T20:53:43.738Z,101026.75
2022-09-22T20:56:11.541Z,101028.97
2022-09-22T20:58:39.295Z,101033.09
2022-09-22T21:01:07.190Z,101033.44
2022-09-22T21:03:35.368Z,101026.63
2022-09-22T21:06:03.307Z,101030.72
2022-09-22T21:08:48.775Z,101029.03
2022-09-22T21:11:16.533Z,101032.97
2022-09-22T21:13:44.333Z,101036.06
2022-09-22T21:16:13.882Z,101033.00
2022-09-22T21:18:43.225Z,101039.84
2022-09-22T21:21:10.995Z,101033.72
2022-09-22T21:23:38.901Z,101033.22
2022-09-22T21:26:07.091Z,101038.84
2022-09-22T21:28:35.002Z,101036.41
2022-09-22T21:31:02.794Z,101039.16
2022-09-22T21:33:30.817Z,101038.50
2022-09-22T21:35:58.622Z,101033.38
2022-09-22T21:38:26.350Z,101035.44
2022-09-22T21:40:54.212Z,101032.19
2022-09-22T21:43:22.023Z,101031.53
2022-09-22T21:45:51.098Z,101032.38
2022-09-22T21:48:19.097Z,101027.28
2022-09-22T21:50:47.009Z,101029.34
2022-09-22T21:53:15.334Z,101030.34
2022-09-22T21:55:43.025Z,101020.47
2022-09-22T21:58:12.805Z,101021.66
2022-09-22T22:00:51.649Z,101023.72
2022-09-22T22:03:32.100Z,101021.19
2022-09-22T22:05:59.835Z,101026.09
2022-09-22T22:08:27.508Z,101025.25
2022-09-22T22:10:55.209Z,101025.25
2022-09-22T22:13:22.974Z,101023.56
2022-09-22T22:15:51.100Z,101018.13
2022-09-22T22:18:18.883Z,101023.72
2022-09-22T22:20:47.113Z,101024.94
2022-09-22T22:23:14.808Z,101027.66
2022-09-22T22:25:43.985Z,101018.78
2022-09-22T22:28:11.701Z,101028.00
2022-09-22T22:30:39.508Z,101029.03
2022-09-22T22:33:08.132Z,101016.59
2022-09-22T22:35:35.931Z,101022.91
2022-09-22T22:38:03.903Z,101013.69
2022-09-22T22:40:32.207Z,101013.00
2022-09-22T22:42:59.954Z,101006.91
2022-09-22T22:45:27.685Z,101011.47
2022-09-22T22:47:55.402Z,101012.66
2022-09-22T22:50:23.100Z,101002.81
2022-09-22T22:52:50.833Z,101011.81
2022-09-22T22:55:18.541Z,101014.75
2022-09-22T22:57:46.221Z,101009.44
2022-09-22T23:00:14.134Z,101009.81
2022-09-22T23:02:41.803Z,101015.25
2022-09-22T23:05:09.597Z,101008.97
2022-09-22T23:07:38.360Z,101015.41
2022-09-22T23:10:08.848Z,101002.81
2022-09-22T23:12:37.211Z,101002.97
2022-09-22T23:15:05.046Z,100996.84
2022-09-22T23:17:33.404Z,101001.44
2022-09-22T23:20:01.175Z,100993.47
2022-09-22T23:22:28.921Z,100987.13
2022-09-22T23:24:56.583Z,100990.88
2022-09-22T23:27:24.509Z,100987.31
2022-09-22T23:29:52.400Z,100981.03
2022-09-22T23:32:20.137Z,100971.13
2022-09-22T23:37:22.143Z,100964.00
2022-09-22T23:39:50.911Z,100968.75
2022-09-22T23:42:18.603Z,100966.03
2022-09-22T23:44:46.337Z,100966.03
2022-09-22T23:47:16.177Z,100967.06
2022-09-22T23:49:44.129Z,100966.38
2022-09-22T23:52:11.861Z,100960.94
2022-09-22T23:54:39.560Z,100970.97
2022-09-22T23:57:07.241Z,100962.81
2022-09-22T23:59:34.969Z,100958.38
